RKSI

Incheon International Airport

Seoul, South Korea
METAR RKSI 151830Z 03002KT 4500 BR NSC 08/03 Q1023 NOSIG
Observed Flight Rules
Nov-15 @ 18:30 UTC (27 minutes ago) Instrument Flight Rules
Wind Visibility Clouds Conditions
30° at 2 knots 4,506 meters
  • Clear skies
  • Mist
Temperatures Readings
Current 8°C / 46°F
Dewpoint 3°C / 37°F
Humidity 71%
Altimeter 30.21" Hg
Pressure 1023 hPa
Elevation 7
METAR RKSI 151830Z 03002KT 4500 BR NSC 08/03 Q1023 NOSIG
Observed Flight Rules
Nov-15 @ 18:30 UTC
(27 minutes ago)
IFR
Wind Visibility
30° at 2 knots 4,506 meters
Clouds
  • Clear skies
Conditions
  • Mist
Temperature Dewpoint
8°C / 46°F 3°C / 37°F
Humidity Altimeter Pressure
71% 30.21" Hg 1023 hPa